createdAt,value
2023-04-19T00:00:13.552Z,31.38
2023-04-19T00:01:13.557Z,29.29
2023-04-19T00:02:13.678Z,28.52
2023-04-19T00:03:13.712Z,30.78
2023-04-19T00:04:13.830Z,31.08
2023-04-19T00:05:13.934Z,29.66
2023-04-19T00:06:13.735Z,29.75
2023-04-19T00:07:13.804Z,30.13
2023-04-19T00:08:13.844Z,27.27
2023-04-19T00:09:13.904Z,31.10
2023-04-19T00:10:13.957Z,27.95
2023-04-19T00:11:14.029Z,26.08
2023-04-19T00:12:14.068Z,25.68
2023-04-19T00:13:14.125Z,30.40
2023-04-19T00:14:14.534Z,29.00
2023-04-19T00:15:14.232Z,27.70
2023-04-19T00:16:14.288Z,31.28
2023-04-19T00:17:14.332Z,26.49
2023-04-19T00:18:14.383Z,30.21
2023-04-19T00:19:14.449Z,30.75
2023-04-19T00:20:14.510Z,29.52
2023-04-19T00:21:14.550Z,27.99
2023-04-19T00:22:14.596Z,29.65
2023-04-19T00:23:14.657Z,28.67
2023-04-19T00:24:14.848Z,32.22
2023-04-19T00:25:14.836Z,32.02
2023-04-19T00:26:14.828Z,30.46
2023-04-19T00:27:14.883Z,26.77
2023-04-19T00:28:14.917Z,32.42
2023-04-19T00:29:14.980Z,31.84
2023-04-19T00:30:15.028Z,30.33
2023-04-19T00:31:15.117Z,25.76
2023-04-19T00:32:15.125Z,27.86
2023-04-19T00:33:15.192Z,30.23
2023-04-19T00:34:15.434Z,28.06
2023-04-19T00:35:15.276Z,30.36
2023-04-19T00:36:15.331Z,29.97
2023-04-19T00:37:15.386Z,30.51
2023-04-19T00:38:15.457Z,29.21
2023-04-19T00:39:15.529Z,27.77
2023-04-19T00:40:15.553Z,27.28
2023-04-19T00:41:15.616Z,32.48
2023-04-19T00:42:15.712Z,30.90
2023-04-19T00:43:15.741Z,31.56
2023-04-19T00:44:16.031Z,29.00
2023-04-19T00:45:15.844Z,31.77
2023-04-19T00:46:15.897Z,31.47
2023-04-19T00:47:15.984Z,29.08
2023-04-19T00:48:15.983Z,33.09
2023-04-19T00:49:16.050Z,28.23
2023-04-19T00:50:16.084Z,27.71
2023-04-19T00:51:16.141Z,25.00
2023-04-19T00:52:16.196Z,28.65
2023-04-19T00:53:16.244Z,31.67
2023-04-19T00:54:16.666Z,25.81
2023-04-19T00:55:16.368Z,29.87
2023-04-19T00:56:16.404Z,31.06
2023-04-19T00:57:16.469Z,30.09
2023-04-19T00:58:16.511Z,29.21
2023-04-19T00:59:16.581Z,31.35
2023-04-19T01:00:16.623Z,26.33
2023-04-19T01:01:16.678Z,28.87
2023-04-19T01:02:16.841Z,32.13
2023-04-19T01:03:17.013Z,29.63
2023-04-19T01:04:17.350Z,27.47
2023-04-19T01:05:16.908Z,29.08
2023-04-19T01:06:16.988Z,26.59
2023-04-19T01:07:17.048Z,29.05
2023-04-19T01:08:17.096Z,27.90
2023-04-19T01:09:17.150Z,27.52
2023-04-19T01:10:17.203Z,28.88
2023-04-19T01:11:17.293Z,26.73
2023-04-19T01:12:17.316Z,29.59
2023-04-19T01:13:17.383Z,32.38
2023-04-19T01:14:17.581Z,29.00
2023-04-19T01:15:17.486Z,28.14
2023-04-19T01:16:17.571Z,28.67
2023-04-19T01:17:17.682Z,27.70
2023-04-19T01:18:17.677Z,29.23
2023-04-19T01:19:17.751Z,30.62
2023-04-19T01:20:17.816Z,31.25
2023-04-19T01:21:17.872Z,26.33
2023-04-19T01:22:17.929Z,25.43
2023-04-19T01:23:17.994Z,27.68
2023-04-19T01:24:18.059Z,31.18
2023-04-19T01:25:18.119Z,31.92
2023-04-19T01:26:18.198Z,27.28
2023-04-19T01:27:18.348Z,26.71
2023-04-19T01:28:18.312Z,25.67
2023-04-19T01:29:18.358Z,28.34
2023-04-19T01:30:18.412Z,30.27
2023-04-19T01:31:18.521Z,28.83
2023-04-19T01:32:18.523Z,31.07
2023-04-19T01:33:18.582Z,25.00
2023-04-19T01:34:18.654Z,28.95
2023-04-19T01:35:18.701Z,32.00
2023-04-19T01:36:18.768Z,28.69
2023-04-19T01:37:18.840Z,25.00
2023-04-19T01:38:18.899Z,30.50
2023-04-19T01:39:18.972Z,31.76
2023-04-19T01:40:19.005Z,30.01
2023-04-19T01:41:19.063Z,30.12
2023-04-19T01:42:19.121Z,30.55
2023-04-19T01:43:19.172Z,30.14
2023-04-19T01:44:19.243Z,29.87
2023-04-19T01:45:19.290Z,32.47
2023-04-19T01:46:19.384Z,29.28
2023-04-19T01:47:19.410Z,34.69
2023-04-19T01:48:19.492Z,30.10
2023-04-19T01:49:19.546Z,31.66
2023-04-19T01:50:19.596Z,31.43
2023-04-19T01:51:19.817Z,28.97
2023-04-19T01:52:19.733Z,30.84
2023-04-19T01:53:19.788Z,31.68
2023-04-19T01:54:19.837Z,30.29
2023-04-19T01:55:19.908Z,27.33
2023-04-19T01:56:19.971Z,30.33
2023-04-19T01:57:20.046Z,30.88
2023-04-19T01:58:20.079Z,30.24
2023-04-19T01:59:20.141Z,31.97
2023-04-19T02:00:20.194Z,27.86
2023-04-19T02:01:20.315Z,33.64
2023-04-19T02:02:20.414Z,34.90
2023-04-19T02:03:20.532Z,28.13
2023-04-19T02:04:20.552Z,33.23
2023-04-19T02:05:20.505Z,33.15
2023-04-19T02:06:20.563Z,31.67
2023-04-19T02:07:20.621Z,29.16
2023-04-19T02:08:20.682Z,31.96
2023-04-19T02:09:20.751Z,34.06
2023-04-19T02:10:20.803Z,27.15
2023-04-19T02:11:20.862Z,30.08
2023-04-19T02:12:20.894Z,32.59
2023-04-19T02:13:20.942Z,33.20
2023-04-19T02:14:21.003Z,33.14
2023-04-19T02:15:21.036Z,30.48
2023-04-19T02:16:21.181Z,29.90
2023-04-19T02:17:21.147Z,31.04
2023-04-19T02:18:21.212Z,32.48
2023-04-19T02:19:21.276Z,29.88
2023-04-19T02:20:21.346Z,30.75
2023-04-19T02:21:21.385Z,31.76
2023-04-19T02:22:21.454Z,32.22
2023-04-19T02:23:21.517Z,29.34
2023-04-19T02:24:21.591Z,27.21
2023-04-19T02:25:21.657Z,25.03
2023-04-19T02:26:21.729Z,32.29
2023-04-19T02:27:21.775Z,29.97
2023-04-19T02:28:21.838Z,29.84
2023-04-19T02:29:21.906Z,29.85
2023-04-19T02:30:21.959Z,26.19
2023-04-19T02:31:22.052Z,27.50
2023-04-19T02:32:22.114Z,30.86
2023-04-19T02:33:22.160Z,33.40
2023-04-19T02:34:22.226Z,27.54
2023-04-19T02:35:22.293Z,30.42
2023-04-19T02:36:22.350Z,31.89
2023-04-19T02:37:22.405Z,32.57
2023-04-19T02:38:22.477Z,30.76
2023-04-19T02:39:22.543Z,31.06
2023-04-19T02:40:22.607Z,29.92
2023-04-19T02:41:22.676Z,31.96
2023-04-19T02:42:22.744Z,31.92
2023-04-19T02:43:22.809Z,30.91
2023-04-19T02:44:22.876Z,25.00
2023-04-19T02:45:22.950Z,31.37
2023-04-19T02:46:22.983Z,31.61
2023-04-19T02:47:23.051Z,31.80
2023-04-19T02:48:22.959Z,32.09
2023-04-19T02:49:22.950Z,30.82
2023-04-19T02:50:22.938Z,30.09
2023-04-19T02:51:22.939Z,32.05
2023-04-19T02:52:22.937Z,31.37
2023-04-19T02:53:22.952Z,33.10
2023-04-19T02:54:22.971Z,29.73
2023-04-19T02:55:22.936Z,30.20
2023-04-19T02:56:22.977Z,31.28
2023-04-19T02:57:23.042Z,26.37
2023-04-19T02:58:23.079Z,24.22
2023-04-19T02:59:23.148Z,26.15
2023-04-19T03:00:23.183Z,25.05
2023-04-19T03:01:23.289Z,23.71
2023-04-19T03:02:23.330Z,25.00
2023-04-19T03:03:23.371Z,25.00
2023-04-19T03:04:23.466Z,25.00
2023-04-19T03:05:23.428Z,25.00
2023-04-19T03:06:23.440Z,25.00
2023-04-19T03:07:23.444Z,25.00
2023-04-19T03:08:23.472Z,26.45
2023-04-19T03:09:23.481Z,25.00
2023-04-19T03:10:23.517Z,25.56
2023-04-19T03:11:23.648Z,25.00
2023-04-19T03:12:23.561Z,25.00
2023-04-19T03:13:23.591Z,25.49
2023-04-19T03:14:23.642Z,28.24
2023-04-19T03:15:23.729Z,25.24
2023-04-19T03:16:23.791Z,25.86
2023-04-19T03:17:23.792Z,26.59
2023-04-19T03:18:23.803Z,26.38
2023-04-19T03:19:23.831Z,25.64
2023-04-19T03:20:23.873Z,27.55
2023-04-19T03:21:23.904Z,25.00
2023-04-19T03:22:23.943Z,25.36
2023-04-19T03:23:23.979Z,25.00
2023-04-19T03:24:24.025Z,25.53
2023-04-19T03:25:24.059Z,25.71
2023-04-19T03:26:24.109Z,26.40
2023-04-19T03:27:24.137Z,26.91
2023-04-19T03:28:24.184Z,25.76
2023-04-19T03:29:24.225Z,25.00
2023-04-19T03:30:24.288Z,25.00
2023-04-19T03:31:24.437Z,29.05
2023-04-19T03:32:24.400Z,25.00
2023-04-19T03:33:24.421Z,25.96
2023-04-19T03:34:24.489Z,26.88
2023-04-19T03:35:24.525Z,25.30
2023-04-19T03:36:24.573Z,28.39
2023-04-19T03:37:24.624Z,25.00
2023-04-19T03:38:24.700Z,25.61
2023-04-19T03:39:24.741Z,25.00
2023-04-19T03:40:24.808Z,27.07
2023-04-19T03:41:24.853Z,28.89
2023-04-19T03:42:25.974Z,27.08
2023-04-19T03:43:24.956Z,25.89
2023-04-19T03:44:25.023Z,25.00
2023-04-19T03:45:25.081Z,29.85
2023-04-19T03:46:25.156Z,27.22
2023-04-19T03:47:25.240Z,26.39
2023-04-19T03:48:25.264Z,29.59
2023-04-19T03:49:25.320Z,27.01
2023-04-19T03:50:25.388Z,25.00
2023-04-19T03:51:25.451Z,25.91
2023-04-19T03:52:25.531Z,25.00
2023-04-19T03:53:25.589Z,29.47
2023-04-19T03:54:25.665Z,29.63
2023-04-19T03:55:25.734Z,29.90
2023-04-19T03:56:25.828Z,25.33
2023-04-19T03:57:25.877Z,29.77
2023-04-19T03:58:25.958Z,29.14
2023-04-19T03:59:26.030Z,25.43
2023-04-19T04:00:26.085Z,28.58
2023-04-19T04:01:26.168Z,27.77
2023-04-19T04:02:26.351Z,28.50
2023-04-19T04:03:26.661Z,32.22
2023-04-19T04:04:26.532Z,32.29
2023-04-19T04:05:26.419Z,27.48
2023-04-19T04:06:26.384Z,32.79
2023-04-19T04:07:26.398Z,33.76
2023-04-19T04:08:26.442Z,34.34
2023-04-19T04:09:26.454Z,33.63
2023-04-19T04:10:26.478Z,30.52
2023-04-19T04:11:26.501Z,32.38
2023-04-19T04:12:26.526Z,40.66
2023-04-19T04:13:26.534Z,39.08
2023-04-19T04:14:26.610Z,41.38
2023-04-19T04:15:26.687Z,38.29
2023-04-19T04:16:26.803Z,40.77
2023-04-19T04:17:26.860Z,43.11
2023-04-19T04:18:26.942Z,56.65
2023-04-19T04:19:27.028Z,72.05
2023-04-19T04:20:27.087Z,80.63
2023-04-19T04:21:27.318Z,87.62
2023-04-19T04:22:27.225Z,99.73
2023-04-19T04:23:27.292Z,110.33
2023-04-19T04:24:27.359Z,124.14
2023-04-19T04:25:27.398Z,122.60
2023-04-19T04:26:27.444Z,129.29
2023-04-19T04:27:27.504Z,128.29
2023-04-19T04:28:27.545Z,136.63
2023-04-19T04:29:27.590Z,143.25
2023-04-19T04:30:28.058Z,148.04
2023-04-19T04:31:27.770Z,152.07
2023-04-19T04:32:27.761Z,158.46
2023-04-19T04:33:27.758Z,165.76
2023-04-19T04:34:27.787Z,166.10
2023-04-19T04:35:27.816Z,169.09
2023-04-19T04:36:27.853Z,171.71
2023-04-19T04:37:27.884Z,178.06
2023-04-19T04:38:27.924Z,178.57
2023-04-19T04:39:27.961Z,180.18
2023-04-19T04:40:27.989Z,180.43
2023-04-19T04:41:28.027Z,183.15
2023-04-19T04:42:28.057Z,184.86
2023-04-19T04:43:28.095Z,186.23
2023-04-19T04:44:28.356Z,185.37
2023-04-19T04:45:28.185Z,184.24
2023-04-19T04:46:28.174Z,184.41
2023-04-19T04:47:28.177Z,184.58
2023-04-19T04:48:28.154Z,183.70
2023-04-19T04:49:28.165Z,184.55
2023-04-19T04:50:28.180Z,163.78
2023-04-19T04:51:28.177Z,145.00
2023-04-19T04:52:28.184Z,129.95
2023-04-19T04:53:28.189Z,120.97
2023-04-19T04:54:28.222Z,115.61
2023-04-19T04:55:28.222Z,115.60
2023-04-19T04:56:28.268Z,113.78
2023-04-19T04:57:28.263Z,108.19
2023-04-19T04:58:28.272Z,107.54
2023-04-19T04:59:28.276Z,104.61
2023-04-19T05:00:28.292Z,99.10
2023-04-19T05:01:28.365Z,90.43
2023-04-19T05:02:28.438Z,87.83
2023-04-19T05:03:28.443Z,88.64
2023-04-19T05:04:28.534Z,85.46
2023-04-19T05:05:28.556Z,83.36
2023-04-19T05:06:28.636Z,77.59
2023-04-19T05:07:28.724Z,80.47
2023-04-19T05:08:28.792Z,76.78
2023-04-19T05:09:28.907Z,77.31
2023-04-19T05:10:28.968Z,77.96
2023-04-19T05:11:29.045Z,70.67
2023-04-19T05:12:29.140Z,75.63
2023-04-19T05:13:29.226Z,77.00
2023-04-19T05:14:29.311Z,78.96
2023-04-19T05:15:29.397Z,74.33
2023-04-19T05:16:29.559Z,73.46
2023-04-19T05:17:29.661Z,74.51
2023-04-19T05:18:29.688Z,73.87
2023-04-19T05:19:29.776Z,79.95
2023-04-19T05:20:29.852Z,80.65
2023-04-19T05:21:29.943Z,86.05
2023-04-19T05:22:30.022Z,90.03
2023-04-19T05:23:30.123Z,87.60
2023-04-19T05:24:30.250Z,89.20
2023-04-19T05:25:30.328Z,90.15
2023-04-19T05:26:30.412Z,82.54
2023-04-19T05:27:30.518Z,86.19
2023-04-19T05:28:30.608Z,95.96
2023-04-19T05:29:30.706Z,107.93
2023-04-19T05:30:30.793Z,123.08
2023-04-19T05:31:30.913Z,130.36
2023-04-19T05:32:31.045Z,144.99
2023-04-19T05:33:31.054Z,162.19
2023-04-19T05:34:31.115Z,177.42
2023-04-19T05:35:31.173Z,192.26
2023-04-19T05:36:31.240Z,205.32
2023-04-19T05:37:31.296Z,216.11
2023-04-19T05:38:31.362Z,219.68
2023-04-19T05:39:31.453Z,231.69
2023-04-19T05:40:31.458Z,238.87
2023-04-19T05:41:31.503Z,245.92
2023-04-19T05:42:31.568Z,249.39
2023-04-19T05:43:31.587Z,250.00
2023-04-19T05:44:31.631Z,250.51
2023-04-19T05:45:31.626Z,253.17
2023-04-19T05:46:31.728Z,239.19
2023-04-19T05:47:31.654Z,184.20
2023-04-19T05:48:31.636Z,130.51
2023-04-19T05:49:31.676Z,91.07
2023-04-19T05:50:31.727Z,67.18
2023-04-19T05:51:31.715Z,65.05
2023-04-19T05:52:31.765Z,52.27
2023-04-19T05:53:31.792Z,40.69
2023-04-19T05:54:32.043Z,32.91
2023-04-19T05:55:31.860Z,32.54
2023-04-19T05:56:31.886Z,28.11
2023-04-19T05:57:31.946Z,29.86
2023-04-19T05:58:31.954Z,25.00
2023-04-19T05:59:31.995Z,23.30
2023-04-19T06:00:32.032Z,25.80
2023-04-19T06:01:32.028Z,25.00
2023-04-19T06:02:32.192Z,22.46
2023-04-19T06:03:32.461Z,23.88
2023-04-19T06:04:32.334Z,25.53
2023-04-19T06:05:32.217Z,25.00
2023-04-19T06:06:32.279Z,25.76
2023-04-19T06:07:34.488Z,26.03
2023-04-19T06:08:33.288Z,26.11
2023-04-19T06:09:32.309Z,26.26
2023-04-19T06:10:44.570Z,30.84
2023-04-19T06:11:42.998Z,26.59
2023-04-19T06:12:33.408Z,26.56
2023-04-19T06:13:32.459Z,28.14
2023-04-19T06:14:32.499Z,26.48
2023-04-19T06:15:32.521Z,27.58
2023-04-19T06:16:32.633Z,26.82
2023-04-19T06:17:32.623Z,30.80
2023-04-19T06:18:32.635Z,37.75
2023-04-19T06:19:32.680Z,41.81
2023-04-19T06:20:32.706Z,51.38
2023-04-19T06:21:32.771Z,50.00
2023-04-19T06:22:32.775Z,42.55
2023-04-19T06:23:32.844Z,47.10
2023-04-19T06:24:34.934Z,46.93
2023-04-19T06:25:32.936Z,51.99
2023-04-19T06:26:33.012Z,50.66
2023-04-19T06:27:33.035Z,47.57
2023-04-19T06:28:33.108Z,43.68
2023-04-19T06:29:33.092Z,40.07
2023-04-19T06:30:33.128Z,45.68
2023-04-19T06:31:33.189Z,47.48
2023-04-19T06:32:33.228Z,67.97
2023-04-19T06:33:33.244Z,82.55
2023-04-19T06:34:33.268Z,97.73
2023-04-19T06:35:33.273Z,116.20
2023-04-19T06:36:33.296Z,128.43
2023-04-19T06:37:33.311Z,145.03
2023-04-19T06:38:33.357Z,150.53
2023-04-19T06:39:33.357Z,150.27
2023-04-19T06:40:33.376Z,137.14
2023-04-19T06:41:33.396Z,132.59
2023-04-19T06:42:33.421Z,129.39
2023-04-19T06:43:33.523Z,136.43
2023-04-19T06:44:33.595Z,142.99
2023-04-19T06:45:33.717Z,157.41
2023-04-19T06:46:33.768Z,173.01
2023-04-19T06:47:35.600Z,183.73
2023-04-19T06:48:33.924Z,193.13
2023-04-19T06:49:33.991Z,199.96
2023-04-19T06:50:34.124Z,208.32
2023-04-19T06:51:34.169Z,217.04
2023-04-19T06:52:34.203Z,225.78
2023-04-19T06:53:34.268Z,230.51
2023-04-19T06:54:34.287Z,230.77
2023-04-19T06:55:34.303Z,200.01
2023-04-19T06:56:34.311Z,157.72
2023-04-19T06:57:34.478Z,125.38
2023-04-19T06:58:35.137Z,106.20
2023-04-19T06:59:34.380Z,93.70
2023-04-19T07:00:34.417Z,77.30
2023-04-19T07:01:34.463Z,66.04
2023-04-19T07:02:34.584Z,60.95
2023-04-19T07:03:34.798Z,47.57
2023-04-19T07:04:34.697Z,44.15
2023-04-19T07:05:34.492Z,36.75
2023-04-19T07:06:34.528Z,29.77
2023-04-19T07:07:34.534Z,31.15
2023-04-19T07:08:48.571Z,25.00
2023-04-19T07:09:35.616Z,25.15
2023-04-19T07:10:34.630Z,25.09
2023-04-19T07:11:34.665Z,24.84
2023-04-19T07:12:34.677Z,13.25
2023-04-19T07:13:34.707Z,16.28
2023-04-19T07:14:34.824Z,12.56
2023-04-19T07:15:34.782Z,27.03
2023-04-19T07:16:34.788Z,24.19
2023-04-19T07:17:34.850Z,25.00
2023-04-19T07:18:34.799Z,32.22
2023-04-19T07:19:34.826Z,30.81
2023-04-19T07:20:34.922Z,30.61
2023-04-19T07:21:34.861Z,25.73
2023-04-19T07:22:34.895Z,29.47
2023-04-19T07:23:34.901Z,36.38
2023-04-19T07:24:34.922Z,40.57
2023-04-19T07:25:34.935Z,49.48
2023-04-19T07:26:34.935Z,37.67
2023-04-19T07:27:35.033Z,42.35
2023-04-19T07:28:34.990Z,46.68
2023-04-19T07:29:35.010Z,40.22
2023-04-19T07:30:35.013Z,39.53
2023-04-19T07:31:35.032Z,39.69
2023-04-19T07:32:35.137Z,42.38
2023-04-19T07:33:35.107Z,43.96
2023-04-19T07:34:35.098Z,49.30
2023-04-19T07:35:35.099Z,62.89
2023-04-19T07:36:35.118Z,60.00
2023-04-19T07:37:36.140Z,61.60
2023-04-19T07:38:35.154Z,71.64
2023-04-19T07:39:35.187Z,66.26
2023-04-19T07:40:35.199Z,69.96
2023-04-19T07:41:36.289Z,77.77
2023-04-19T07:42:35.362Z,95.30
2023-04-19T07:43:35.430Z,112.90
2023-04-19T07:44:35.520Z,136.72
2023-04-19T07:45:35.571Z,151.95
2023-04-19T07:46:35.671Z,156.19
2023-04-19T07:47:35.712Z,168.68
2023-04-19T07:48:35.712Z,168.99
2023-04-19T07:49:35.727Z,171.72
2023-04-19T07:50:35.725Z,178.36
2023-04-19T07:51:35.760Z,191.93
2023-04-19T07:52:35.766Z,211.31
2023-04-19T07:53:35.771Z,217.07
2023-04-19T07:54:35.803Z,222.92
2023-04-19T07:55:35.805Z,224.87
2023-04-19T07:56:35.809Z,219.88
2023-04-19T07:57:35.812Z,210.99
2023-04-19T07:58:35.815Z,211.62
2023-04-19T07:59:35.825Z,214.95
2023-04-19T08:00:35.867Z,221.29
2023-04-19T08:01:36.086Z,225.69
2023-04-19T08:02:35.940Z,229.29
2023-04-19T08:03:35.938Z,219.24
2023-04-19T08:04:36.159Z,211.00
2023-04-19T08:05:36.128Z,199.13
2023-04-19T08:06:35.890Z,205.63
2023-04-19T08:07:35.874Z,203.38
2023-04-19T08:08:35.884Z,204.68
2023-04-19T08:09:35.898Z,196.07
2023-04-19T08:10:35.896Z,184.64
2023-04-19T08:11:35.896Z,184.71
2023-04-19T08:12:42.784Z,184.77
2023-04-19T08:13:36.900Z,184.95
2023-04-19T08:14:47.480Z,185.77
2023-04-19T08:16:20.261Z,185.29
2023-04-19T08:17:41.889Z,185.78
2023-04-19T08:18:36.902Z,185.97
2023-04-19T08:19:35.900Z,189.78
2023-04-19T08:20:35.873Z,195.80
2023-04-19T08:21:41.125Z,201.58
2023-04-19T08:22:36.901Z,185.61
2023-04-19T08:23:47.285Z,188.24
2023-04-19T08:24:36.893Z,185.27
2023-04-19T08:25:35.917Z,187.27
2023-04-19T08:26:35.908Z,190.58
2023-04-19T08:27:35.890Z,194.96
2023-04-19T08:28:35.889Z,203.64
2023-04-19T08:29:35.886Z,211.01
2023-04-19T08:30:36.115Z,211.26
2023-04-19T08:31:35.910Z,214.18
2023-04-19T08:32:35.886Z,217.00
2023-04-19T08:33:35.878Z,221.35
2023-04-19T08:34:35.876Z,186.50
2023-04-19T08:35:35.878Z,171.39
2023-04-19T08:36:41.117Z,141.04
2023-04-19T08:37:36.876Z,119.07
2023-04-19T08:38:35.874Z,98.02
2023-04-19T08:39:36.227Z,89.20
2023-04-19T08:40:35.882Z,71.94
2023-04-19T08:41:35.892Z,54.22
2023-04-19T08:42:37.066Z,47.45
2023-04-19T08:43:35.900Z,36.10
2023-04-19T08:44:37.417Z,34.41
2023-04-19T08:45:36.046Z,26.88
2023-04-19T08:46:36.438Z,30.66
2023-04-19T08:47:42.018Z,37.61
2023-04-19T08:48:37.005Z,35.35
2023-04-19T08:49:35.972Z,39.19
2023-04-19T08:50:48.426Z,46.17
2023-04-19T08:51:36.991Z,35.32
2023-04-19T08:52:47.820Z,41.24
2023-04-19T08:53:37.002Z,36.71
2023-04-19T08:54:36.007Z,47.07
2023-04-19T08:55:36.045Z,72.56
2023-04-19T08:56:36.152Z,109.49
2023-04-19T08:57:36.032Z,158.09
2023-04-19T08:58:46.441Z,157.51
2023-04-19T08:59:37.113Z,157.87
2023-04-19T09:00:36.076Z,161.43
2023-04-19T09:01:36.674Z,164.77
2023-04-19T09:02:36.319Z,178.59
2023-04-19T09:03:44.270Z,185.22
2023-04-19T09:04:37.885Z,158.62
2023-04-19T09:05:36.232Z,163.09
2023-04-19T09:06:36.146Z,171.52
2023-04-19T09:07:36.052Z,189.40
2023-04-19T09:08:36.039Z,200.77
2023-04-19T09:09:42.991Z,208.09
2023-04-19T09:10:37.039Z,208.22
2023-04-19T09:11:36.026Z,208.45
2023-04-19T09:12:36.018Z,207.32
2023-04-19T09:13:36.026Z,208.62
2023-04-19T09:14:36.021Z,216.46
2023-04-19T09:15:36.064Z,211.57
2023-04-19T09:16:36.007Z,217.34
2023-04-19T09:17:36.048Z,219.23
2023-04-19T09:18:42.592Z,217.19
2023-04-19T09:19:37.025Z,217.39
2023-04-19T09:20:36.001Z,218.97
2023-04-19T09:21:36.008Z,221.42
2023-04-19T09:22:35.989Z,223.58
2023-04-19T09:23:35.995Z,225.26
2023-04-19T09:24:57.253Z,236.78
2023-04-19T09:25:47.208Z,236.95
2023-04-19T09:26:36.978Z,237.06
2023-04-19T09:27:35.964Z,238.51
2023-04-19T09:28:35.974Z,241.00
2023-04-19T09:29:35.987Z,245.96
2023-04-19T09:30:43.461Z,252.95
2023-04-19T09:31:50.790Z,237.53
2023-04-19T09:32:37.014Z,237.47
2023-04-19T09:33:36.029Z,239.35
2023-04-19T09:34:35.934Z,242.60
2023-04-19T09:35:35.941Z,240.27
2023-04-19T09:36:35.954Z,249.60
2023-04-19T09:37:57.430Z,249.74
2023-04-19T09:38:37.746Z,250.07
2023-04-19T09:39:35.920Z,250.37
2023-04-19T09:40:35.917Z,250.08
2023-04-19T09:41:37.463Z,244.19
2023-04-19T09:42:50.995Z,229.69
2023-04-19T09:45:35.857Z,159.04
2023-04-19T09:46:35.938Z,149.60
2023-04-19T09:47:35.917Z,146.82
2023-04-19T09:48:35.859Z,131.08
2023-04-19T09:50:46.757Z,126.21
2023-04-19T09:51:36.839Z,134.03
2023-04-19T09:52:35.834Z,117.89
2023-04-19T09:53:35.823Z,117.29
2023-04-19T09:54:35.829Z,117.83
2023-04-19T09:56:35.837Z,111.31
2023-04-19T09:57:35.835Z,111.36
2023-04-19T09:59:35.866Z,110.95
2023-04-19T10:00:45.188Z,110.49
2023-04-19T10:01:35.942Z,111.55
2023-04-19T10:02:36.076Z,108.06
2023-04-19T10:03:36.116Z,108.42
2023-04-19T10:04:50.413Z,103.29
2023-04-19T10:05:39.913Z,105.40
2023-04-19T10:06:58.434Z,109.39
2023-04-19T10:07:36.992Z,98.51
2023-04-19T10:08:35.860Z,67.84
2023-04-19T10:09:42.566Z,54.63
2023-04-19T10:11:35.862Z,43.38
2023-04-19T10:13:35.866Z,51.38
2023-04-19T10:14:35.877Z,56.69
2023-04-19T10:15:49.432Z,51.48
2023-04-19T10:16:37.019Z,34.69
2023-04-19T10:17:35.895Z,24.31
2023-04-19T10:18:35.884Z,25.97
2023-04-19T10:19:35.878Z,27.91
2023-04-19T10:20:35.901Z,33.30
2023-04-19T10:21:36.023Z,49.34
2023-04-19T10:22:35.885Z,60.31
2023-04-19T10:23:35.881Z,68.60
2023-04-19T10:24:35.892Z,71.27
2023-04-19T10:25:35.913Z,77.97
2023-04-19T10:26:35.901Z,55.00
2023-04-19T10:27:35.891Z,46.71
2023-04-19T10:28:35.904Z,33.15
2023-04-19T10:29:35.916Z,41.29
2023-04-19T10:30:35.895Z,51.85
2023-04-19T10:31:35.948Z,55.20
2023-04-19T10:32:35.928Z,58.72
2023-04-19T10:33:35.927Z,56.39
2023-04-19T10:34:35.938Z,60.51
2023-04-19T10:35:35.961Z,39.37
2023-04-19T10:36:35.957Z,39.45
2023-04-19T10:37:36.032Z,41.94
2023-04-19T10:38:36.036Z,46.35
2023-04-19T10:39:35.982Z,54.44
2023-04-19T10:40:35.981Z,57.95
2023-04-19T10:41:36.000Z,52.22
2023-04-19T10:42:36.002Z,50.73
2023-04-19T10:43:36.010Z,50.52
2023-04-19T10:44:36.019Z,28.72
2023-04-19T10:45:36.135Z,25.00
2023-04-19T10:46:36.442Z,29.70
2023-04-19T10:47:36.028Z,34.15
2023-04-19T10:48:36.034Z,40.57
2023-04-19T10:49:36.031Z,49.95
2023-04-19T10:50:36.046Z,54.18
2023-04-19T10:51:36.063Z,49.80
2023-04-19T10:52:36.062Z,35.44
2023-04-19T10:53:36.054Z,35.64
2023-04-19T10:54:36.067Z,37.17
2023-04-19T10:55:36.056Z,41.29
2023-04-19T10:56:36.082Z,50.66
2023-04-19T10:57:36.082Z,66.19
2023-04-19T10:58:36.075Z,64.71
2023-04-19T10:59:36.072Z,49.46
2023-04-19T11:00:36.090Z,37.32
2023-04-19T11:01:36.117Z,41.83
2023-04-19T11:02:36.141Z,46.59
2023-04-19T11:03:36.286Z,55.00
2023-04-19T11:04:36.214Z,60.55
2023-04-19T11:05:36.243Z,53.63
2023-04-19T11:06:36.129Z,52.35
2023-04-19T11:07:36.149Z,60.44
2023-04-19T11:08:36.148Z,63.83
2023-04-19T11:09:36.143Z,61.07
2023-04-19T11:10:36.159Z,62.78
2023-04-19T11:11:36.161Z,63.04
2023-04-19T11:12:36.175Z,63.36
2023-04-19T11:13:36.158Z,62.44
2023-04-19T11:14:36.162Z,67.07
2023-04-19T11:15:36.198Z,48.33
2023-04-19T11:16:45.452Z,22.76
2023-04-19T11:17:37.197Z,16.01
2023-04-19T11:18:36.286Z,20.41
2023-04-19T11:19:36.211Z,23.25
2023-04-19T11:20:36.202Z,26.97
2023-04-19T11:21:36.217Z,32.96
2023-04-19T11:22:36.342Z,25.33
2023-04-19T11:23:36.223Z,3.42
2023-04-19T11:24:36.241Z,0.00
2023-04-19T11:25:36.239Z,0.00
2023-04-19T11:26:36.249Z,0.00
2023-04-19T11:27:36.251Z,0.00
2023-04-19T11:28:36.260Z,6.28
2023-04-19T11:29:36.261Z,4.71
2023-04-19T11:30:36.289Z,7.48
2023-04-19T11:31:36.338Z,20.52
2023-04-19T11:32:36.384Z,29.74
2023-04-19T11:33:36.286Z,38.56
2023-04-19T11:34:36.319Z,47.84
2023-04-19T11:35:36.296Z,59.69
2023-04-19T11:36:36.317Z,72.29
2023-04-19T11:37:36.651Z,79.58
2023-04-19T11:38:36.312Z,87.62
2023-04-19T11:39:36.309Z,87.96
2023-04-19T11:40:36.314Z,90.90
2023-04-19T11:41:36.323Z,95.66
2023-04-19T11:42:36.321Z,105.38
2023-04-19T11:43:36.320Z,130.30
2023-04-19T11:44:36.324Z,89.37
2023-04-19T11:45:39.120Z,96.60
2023-04-19T11:46:36.335Z,89.82
2023-04-19T11:47:36.355Z,97.76
2023-04-19T11:48:36.355Z,112.87
2023-04-19T11:49:36.360Z,137.27
2023-04-19T11:50:36.350Z,169.32
2023-04-19T11:51:36.364Z,174.64
2023-04-19T11:52:36.358Z,175.76
2023-04-19T11:53:36.367Z,177.89
2023-04-19T11:54:36.355Z,179.75
2023-04-19T11:55:36.351Z,179.85
2023-04-19T11:56:36.371Z,180.27
2023-04-19T11:57:36.348Z,181.99
2023-04-19T11:58:36.400Z,187.29
2023-04-19T11:59:36.422Z,204.18
2023-04-19T12:00:36.370Z,213.40
2023-04-19T12:01:36.372Z,226.64
2023-04-19T12:02:36.473Z,236.67
2023-04-19T12:03:36.583Z,244.47
2023-04-19T12:04:36.519Z,247.17
2023-04-19T12:05:36.511Z,249.00
2023-04-19T12:06:36.488Z,250.00
2023-04-19T12:07:36.518Z,249.93
2023-04-19T12:08:36.554Z,249.21
2023-04-19T12:09:36.621Z,248.04
2023-04-19T12:10:36.681Z,247.47
2023-04-19T12:11:36.733Z,247.96
2023-04-19T12:12:36.799Z,247.59
2023-04-19T12:13:36.927Z,247.76
2023-04-19T12:14:36.927Z,248.69
2023-04-19T12:16:52.831Z,25.00
2023-04-19T12:17:57.536Z,25.00
2023-04-19T12:18:53.834Z,25.00
2023-04-19T12:19:52.827Z,25.00
2023-04-19T12:20:52.829Z,25.00
2023-04-19T12:21:52.862Z,25.00
2023-04-19T12:22:52.827Z,25.00
2023-04-19T12:23:52.823Z,26.64
2023-04-19T12:24:52.820Z,26.18
2023-04-19T12:25:52.823Z,25.00
2023-04-19T12:26:54.580Z,27.30
2023-04-19T12:27:52.838Z,25.25
2023-04-19T12:28:52.859Z,25.00
2023-04-19T12:29:52.834Z,29.47
2023-04-19T12:30:52.832Z,32.88
2023-04-19T12:31:52.893Z,25.74
2023-04-19T12:32:52.963Z,28.98
2023-04-19T12:33:52.827Z,36.22
2023-04-19T12:34:52.847Z,31.03
2023-04-19T12:35:52.796Z,41.29
2023-04-19T12:36:52.811Z,65.09
2023-04-19T12:37:52.784Z,86.28
2023-04-19T12:38:52.783Z,112.52
2023-04-19T12:39:54.258Z,111.40
2023-04-19T12:40:52.783Z,111.42
2023-04-19T12:41:52.794Z,112.00
2023-04-19T12:42:52.794Z,115.12
2023-04-19T12:43:52.787Z,118.31
2023-04-19T12:44:52.809Z,133.84
2023-04-19T12:45:52.818Z,145.74
2023-04-19T12:46:52.774Z,152.21
2023-04-19T12:47:52.890Z,170.33
2023-04-19T12:48:52.757Z,174.47
2023-04-19T12:49:52.734Z,181.30
2023-04-19T12:50:52.727Z,197.90
2023-04-19T12:51:53.661Z,206.47
2023-04-19T12:52:52.723Z,220.97
2023-04-19T12:53:52.723Z,229.18